Terminal Aerodrome Forecast
Issued by NWS

Home | Current Version | Previous Version | Graphics & Text | Print | Product List | Glossary On
Versions: 1 2 3 4 5 6 7 8 9 10 11 12 13 14 15 16 17 18 19 20 21 22 23 24
921
FTUS43 KBIS 250347 AAA
TAFMOT
TAF AMD
KMOT 250347Z 2504/2524 23007KT P6SM FEW030 SCT060
     FM250800 24008KT P6SM VCSH SCT025 BKN070
     FM251200 28008KT P6SM VCSH BKN030
     FM251500 31008KT P6SM BKN020
     FM252300 30007KT P6SM VCSH BKN010=

USA.gov is the U.S. government's official web portal to all federal, state and local government web resources and services.